Electric Bolt 5K

back to results

Jul. 29, 2012

Electric Bolt 5K
Gallup Park
Ann Arbor, MI
Provided by Gary Olsen/Race Timing Services


Electric Bolt
Age Group Results
July 29, 2012
Race Timing Services

Male Open Winners

Place Name Age Overall Total Time Pace
1 Alex Advey 35 1 17:06 5:31/M

Female Open Winners

Place Name Age Overall Total Time Pace
1 Morgan Burke 17 25 21:44 7:01/M

Male Masters Winners

Place Name Age Overall Total Time Pace
1 Paul Mayer 45 4 17:35 5:40/M

Female Masters Winners

Place Name Age Overall Total Time Pace
1 Carmen Green-Lee 47 28 22:01 7:06/M

Male Grand Masters Winners

Place Name Age Overall Total Time Pace
1 Wally Hayes 60 15 19:40 6:21/M

Female Grand Masters Winners

Place Name Age Overall Total Time Pace
1 Paula Pendergast 58 105 29:53 9:38/M

Male 8 and under

Place Name Age Overall Total Time Pace
1 Reece Carroll 4 127 33:15 10:44/M
2 James Phelps 7 131 33:49 10:55/M
3 Vibhav Alokam 5 132 33:52 10:55/M
4 Jackson Kangas 8 143 37:08 11:59/M

Female 8 and under

Place Name Age Overall Total Time Pace
1 Charlotte Steglitz 8 90 28:25 9:10/M
2 Marina Carroll 6 130 33:29 10:48/M

Male 9 to 10

Place Name Age Overall Total Time Pace
1 Conleth Stead 10 48 24:41 7:58/M
2 Vimal Alokam 9 62 25:58 8:23/M

Female 9 to 10

Place Name Age Overall Total Time Pace
1 Allison Steglitz 10 76 27:01 8:43/M
2 Lidewij Florusbosch 10 91 28:26 9:10/M

Male 11 to 12

Place Name Age Overall Total Time Pace
1 Aidan Stead 12 45 23:59 7:44/M

Female 11 to 12

Place Name Age Overall Total Time Pace
1 Cammie Dalton 12 58 25:50 8:20/M
2 Alisha Birchmeier 12 154 39:32 12:45/M
3 Taylor Woodman 11 157 41:45 13:28/M

Female 13 to 14

Place Name Age Overall Total Time Pace
1 Alyssa Swidersky 14 63 26:05 8:25/M

Male 15 to 17

Place Name Age Overall Total Time Pace
1 Cory Pontious 16 10 19:24 6:15/M
2 Garit Birchmeier 15 19 21:04 6:48/M

Female 15 to 17

Place Name Age Overall Total Time Pace
1 Jeannine Degnan 16 66 26:21 8:30/M

Male 18 to 24

Place Name Age Overall Total Time Pace
1 Corey Birchmeier 19 3 17:33 5:40/M
2 Kevin Swastek 21 14 19:39 6:20/M
3 Benito Aquino 24 18 21:00 6:46/M
4 Alex Canell 18 75 26:57 8:42/M

Female 18 to 24

Place Name Age Overall Total Time Pace
1 Divya Mathew 23 84 27:55 9:00/M
2 Kylie Atkinson 22 103 29:42 9:35/M
3 Julianne Atkinson 19 104 29:43 9:35/M

Male 25 to 29

Place Name Age Overall Total Time Pace
1 Cole Johnson 27 5 17:49 5:45/M
2 Harlyn Eduardo Pacheco 28 8 19:09 6:11/M
3 Dante Michael 25 9 19:17 6:13/M
4 Jeff Pehler 28 22 21:17 6:52/M
5 Mike Zuehlke 28 54 25:33 8:15/M
6 David Cepeda 27 61 25:57 8:22/M
7 Nadav Ariel 27 106 29:54 9:39/M
8 Richard Kangas 28 142 37:08 11:59/M

Female 25 to 29

Place Name Age Overall Total Time Pace
1 Heather Makiharju 27 30 22:03 7:07/M
2 Tyacie Corle 28 53 25:16 8:09/M
3 Isabella Weber 28 57 25:49 8:20/M
4 Carly Fritsch 26 78 27:09 8:45/M
5 Rebecca Wall 27 97 29:14 9:26/M
6 Natalie McCauley 26 109 30:36 9:52/M
7 Irina Jacobs 28 156 40:49 13:10/M
8 Chelsea Donaldson 26 161 46:54 15:08/M
9 Melissa Ross 26 175 56:42 18:17/M

Male 30 to 34

Place Name Age Overall Total Time Pace
1 Andrew Weber 32 6 18:12 5:52/M
2 Dan Brein 33 20 21:13 6:51/M
3 Nirav Acharya 30 114 30:58 9:59/M
4 Steve Carroll 31 128 33:22 10:46/M

Female 30 to 34

Place Name Age Overall Total Time Pace
1 Katie Sytniak 33 36 22:41 7:19/M
2 Asia Renning 31 38 22:56 7:24/M
3 Jennifer D'Souza 33 42 23:36 7:37/M
4 Elizabeth Weiss-Deboer 30 46 24:05 7:46/M
5 Kristen Thompson 30 55 25:35 8:15/M
6 Laura Miles 31 56 25:39 8:16/M
7 Allison Carroll 31 129 33:27 10:47/M
8 Tina Phelps 34 133 34:09 11:01/M
9 Karina Ream 32 159 42:14 13:37/M
10 Christa Vogelius 31 165 49:26 15:57/M

Male 35 to 39

Place Name Age Overall Total Time Pace
1 John Graham 39 2 17:32 5:39/M
2 Ken Kozloff 37 11 19:25 6:16/M
3 Jason Buquet 39 16 19:42 6:21/M
4 Jason Armstrong 38 24 21:39 6:59/M
5 Chad Privratsky 36 27 22:00 7:06/M
6 Satoshi Ohmura 39 35 22:34 7:17/M
7 Tony Lintott 39 43 23:49 7:41/M
8 Jeremy Borys 37 93 28:33 9:13/M
9 Ryan Bradt 36 116 31:33 10:11/M
10 Jason Walden 36 117 31:54 10:17/M
11 Joe Kellams 38 126 33:10 10:42/M
12 Mark Cerulla 39 173 53:01 17:06/M

Female 35 to 39

Place Name Age Overall Total Time Pace
1 Karyn Grey 37 47 24:15 7:49/M
2 Bridget Quinn 37 65 26:09 8:26/M
3 Dee Lamphear 36 69 26:29 8:33/M
4 Jennifer Javor 35 73 26:45 8:38/M
5 Alessandra Alves 38 112 30:46 9:55/M
6 Magda Pecsenye 39 134 34:17 11:04/M
7 Michelle McAllister 38 162 47:37 15:22/M
8 Fay Poissant 36 163 47:38 15:22/M

Male 40 to 44

Place Name Age Overall Total Time Pace
1 Tjapko Poppens 43 29 22:03 7:07/M
2 David Oliver 40 31 22:18 7:12/M
3 Stanley Bies 44 40 23:16 7:30/M
4 Jerry Swidersky 42 41 23:36 7:37/M
5 Brian Steglitz 44 77 27:01 8:43/M
6 Jim Stead 44 83 27:37 8:55/M
7 James Peterson 40 85 28:02 9:03/M
8 John Rouleau 43 88 28:11 9:05/M
9 Paul Straka 40 99 29:31 9:31/M
10 John Baker 43 101 29:37 9:33/M
11 Marty Riesberg 41 125 33:09 10:42/M
12 Shawn Crump 43 150 38:25 12:24/M

Female 40 to 44

Place Name Age Overall Total Time Pace
1 Jennifer Fike 44 39 23:13 7:29/M
2 Christine Stead 40 49 24:43 7:58/M
3 Amy Hoffman 42 72 26:45 8:38/M
4 Sharon Ortisi 42 86 28:06 9:04/M
5 Nancy Herlocher 44 92 28:28 9:11/M
6 Anne Cowan 42 94 28:33 9:13/M
7 Michelle Moore 43 98 29:20 9:28/M
8 Amy Janowicz 40 100 29:32 9:32/M
9 Ann Abraham 44 113 30:51 9:57/M
10 Patricia Birchmeier 42 155 39:34 12:46/M
11 Jacqueline Lanz 43 158 41:45 13:28/M

Male 45 to 49

Place Name Age Overall Total Time Pace
1 Shawn Haggin 46 12 19:28 6:17/M
2 Roger Sunahara 49 13 19:38 6:20/M
3 Dan Miller 48 21 21:16 6:52/M
4 Eric Straka 46 23 21:22 6:54/M
5 John McInnis 48 32 22:19 7:12/M
6 Bob Miller 48 34 22:23 7:13/M
7 Kevin Ross 48 68 26:25 8:31/M
8 Casey Walsh 48 80 27:12 8:46/M
9 Arthur Verhoogt 45 95 28:34 9:13/M
10 Mark Boyer 49 164 48:27 15:38/M
11 Chris Kelly 46 172 53:01 17:06/M

Female 45 to 49

Place Name Age Overall Total Time Pace
1 Christa Bekker 49 81 27:33 8:53/M
2 Beth Ellis 48 87 28:11 9:05/M
3 Akosua Dow 49 121 32:53 10:36/M
4 Michelle Bies 45 141 37:04 11:57/M
5 Nickie Bateson 48 151 38:43 12:29/M
6 Dj Siegman 49 152 38:46 12:30/M
7 Dixie Banner 47 168 52:37 16:58/M

Male 50 to 54

Place Name Age Overall Total Time Pace
1 Hugh Kuchta 54 7 19:01 6:08/M
2 Dave Thurston 52 17 19:43 6:22/M
3 Morris Applebey 53 26 21:51 7:03/M
4 Doug Bateson 51 50 24:51 8:01/M
5 Bernard Degnan 51 52 25:06 8:06/M
6 Michael Lay 52 59 25:52 8:21/M
7 James Lupton 54 60 25:56 8:22/M
8 Ken Morley 51 67 26:25 8:31/M
9 Doug Pontious 53 70 26:35 8:35/M
10 Daniel Golze 53 79 27:10 8:46/M
11 Brian Gregory 54 102 29:40 9:34/M
12 Ken Magee 53 111 30:46 9:55/M
13 David Anderson 51 122 32:53 10:36/M
14 Jeff Clark 50 139 36:32 11:47/M
15 Jim Diroff 51 145 37:23 12:04/M
16 Michael Talarski 50 170 52:40 16:59/M
17 Palmer Hickman 53 171 52:59 17:05/M

Female 50 to 54

Place Name Age Overall Total Time Pace
1 Kathleen Lodge 52 108 30:17 9:46/M
2 Shelly Webber 54 140 36:45 11:51/M
3 Jerri Champlin 53 144 37:10 11:59/M
4 Janet Skipper 52 146 38:13 12:20/M
5 Karen King 54 149 38:20 12:22/M

Male 55 to 59

Place Name Age Overall Total Time Pace
1 Ron Stempihar 59 33 22:20 7:12/M
2 Jonathan Gosse 59 64 26:07 8:25/M
3 Steve Hernandez 57 71 26:40 8:36/M
4 David Myers 55 96 28:37 9:14/M
5 Ken Jania 56 115 31:09 10:03/M
6 Clay Tschillard 55 118 32:03 10:20/M
7 Michael Callanan 55 124 33:07 10:41/M
8 Gary Polulak 57 174 53:03 17:07/M

Female 55 to 59

Place Name Age Overall Total Time Pace
1 Judy Brazil 58 135 35:01 11:18/M
2 Kathleen Dobson 58 160 45:36 14:43/M

Male 60 to 64

Place Name Age Overall Total Time Pace
1 John Reed 61 37 22:47 7:21/M
2 Timothy Williams 60 44 23:55 7:43/M
3 David Fisher 62 51 25:03 8:05/M
4 Michael Galea 63 82 27:35 8:54/M
5 Andy Batty 64 107 30:05 9:42/M
6 Steve Ott 63 110 30:37 9:53/M
7 Jim Sullivan 60 123 33:06 10:41/M
8 Jeff Luby 61 136 35:29 11:27/M
9 Tim Emery 62 137 36:16 11:42/M
10 John Biondi 62 147 38:14 12:20/M
11 Jake Benninger 64 169 52:38 16:59/M

Female 60 to 64

Place Name Age Overall Total Time Pace
1 Andrea Helsinger 61 120 32:42 10:33/M
2 Marlene Emery 62 138 36:17 11:42/M
3 Kathleen Barber 60 153 38:48 12:31/M

Male 65 to 69

Place Name Age Overall Total Time Pace
1 Jerry Mittman 67 74 26:47 8:38/M
2 Richard Johnson 65 119 32:28 10:28/M

Female 65 to 69

Place Name Age Overall Total Time Pace
1 Judy Cohen 68 166 49:33 15:59/M

Male 70 to 74

Place Name Age Overall Total Time Pace
1 Malcolm Cohen 70 89 28:24 9:10/M
2 Reynolds Faley 74 167 52:00 16:46/M

Male 80 & Over

Place Name Age Overall Total Time Pace
1 Tom Whalen 80 148 38:15 12:20/M